sensor_id;sensor_type;location;lat;lon;timestamp;pressure;altitude;pressure_sealevel;temperature;humidity
54270;BME280;40181;51.560;13.000;2023-04-02T00:00:09;100061.06;;;5.80;100.00
54270;BME280;40181;51.560;13.000;2023-04-02T00:02:58;100062.28;;;5.59;100.00
54270;BME280;40181;51.560;13.000;2023-04-02T00:05:31;100068.19;;;5.52;100.00
54270;BME280;40181;51.560;13.000;2023-04-02T00:08:19;100087.56;;;5.63;100.00
54270;BME280;40181;51.560;13.000;2023-04-02T00:10:54;100078.06;;;5.65;100.00
54270;BME280;40181;51.560;13.000;2023-04-02T00:13:31;100080.09;;;5.77;100.00
54270;BME280;40181;51.560;13.000;2023-04-02T00:16:03;100082.75;;;5.79;100.00
54270;BME280;40181;51.560;13.000;2023-04-02T00:18:40;100089.63;;;5.75;100.00
54270;BME280;40181;51.560;13.000;2023-04-02T00:21:17;100098.13;;;5.68;100.00
54270;BME280;40181;51.560;13.000;2023-04-02T00:23:47;100102.06;;;5.53;100.00
54270;BME280;40181;51.560;13.000;2023-04-02T00:26:26;100101.63;;;5.36;100.00
54270;BME280;40181;51.560;13.000;2023-04-02T00:28:58;100111.75;;;5.25;100.00
54270;BME280;40181;51.560;13.000;2023-04-02T00:31:28;100117.78;;;5.23;100.00
54270;BME280;40181;51.560;13.000;2023-04-02T00:34:01;100110.63;;;5.16;100.00
54270;BME280;40181;51.560;13.000;2023-04-02T00:36:32;100119.41;;;5.19;100.00
54270;BME280;40181;51.560;13.000;2023-04-02T00:39:06;100111.91;;;5.32;100.00
54270;BME280;40181;51.560;13.000;2023-04-02T00:41:39;100127.22;;;4.90;100.00
54270;BME280;40181;51.560;13.000;2023-04-02T00:44:11;100134.00;;;4.83;100.00
54270;BME280;40181;51.560;13.000;2023-04-02T00:46:46;100134.41;;;4.97;100.00
54270;BME280;40181;51.560;13.000;2023-04-02T00:49:22;100134.63;;;5.05;100.00
54270;BME280;40181;51.560;13.000;2023-04-02T00:51:58;100130.41;;;4.80;100.00
54270;BME280;40181;51.560;13.000;2023-04-02T00:54:33;100135.88;;;4.88;100.00
54270;BME280;40181;51.560;13.000;2023-04-02T00:57:14;100143.06;;;4.67;100.00
54270;BME280;40181;51.560;13.000;2023-04-02T00:59:53;100153.72;;;5.04;100.00
54270;BME280;40181;51.560;13.000;2023-04-02T01:02:26;100142.50;;;4.78;100.00
54270;BME280;40181;51.560;13.000;2023-04-02T01:05:00;100150.94;;;4.69;100.00
54270;BME280;40181;51.560;13.000;2023-04-02T01:07:50;100166.84;;;4.80;100.00
54270;BME280;40181;51.560;13.000;2023-04-02T01:10:40;100166.25;;;4.89;100.00
54270;BME280;40181;51.560;13.000;2023-04-02T01:13:22;100162.59;;;4.82;100.00
54270;BME280;40181;51.560;13.000;2023-04-02T01:15:59;100172.69;;;4.73;100.00
54270;BME280;40181;51.560;13.000;2023-04-02T01:18:44;100177.59;;;4.63;100.00
54270;BME280;40181;51.560;13.000;2023-04-02T01:21:30;100185.41;;;4.63;100.00
54270;BME280;40181;51.560;13.000;2023-04-02T01:24:07;100191.72;;;4.70;100.00
54270;BME280;40181;51.560;13.000;2023-04-02T01:26:52;100195.88;;;4.65;100.00
54270;BME280;40181;51.560;13.000;2023-04-02T01:29:26;100193.91;;;4.57;100.00
54270;BME280;40181;51.560;13.000;2023-04-02T01:31:59;100199.59;;;4.46;100.00
54270;BME280;40181;51.560;13.000;2023-04-02T01:34:31;100211.94;;;4.51;100.00
54270;BME280;40181;51.560;13.000;2023-04-02T01:37:23;100219.09;;;4.59;100.00
54270;BME280;40181;51.560;13.000;2023-04-02T01:40:25;100218.31;;;4.61;100.00
54270;BME280;40181;51.560;13.000;2023-04-02T01:43:02;100222.13;;;4.45;100.00
54270;BME280;40181;51.560;13.000;2023-04-02T01:45:40;100230.09;;;4.50;100.00
54270;BME280;40181;51.560;13.000;2023-04-02T01:48:13;100227.59;;;4.53;100.00
54270;BME280;40181;51.560;13.000;2023-04-02T01:50:44;100225.03;;;4.54;100.00
54270;BME280;40181;51.560;13.000;2023-04-02T01:53:17;100235.69;;;4.62;100.00
54270;BME280;40181;51.560;13.000;2023-04-02T01:55:49;100243.34;;;4.32;100.00
54270;BME280;40181;51.560;13.000;2023-04-02T01:58:21;100250.50;;;4.37;100.00
54270;BME280;40181;51.560;13.000;2023-04-02T02:00:58;100239.28;;;4.38;100.00
54270;BME280;40181;51.560;13.000;2023-04-02T02:03:30;100262.31;;;4.27;100.00
54270;BME280;40181;51.560;13.000;2023-04-02T02:06:01;100261.25;;;4.22;100.00
54270;BME280;40181;51.560;13.000;2023-04-02T02:08:36;100262.09;;;4.21;100.00
54270;BME280;40181;51.560;13.000;2023-04-02T02:11:09;100270.47;;;4.38;100.00
54270;BME280;40181;51.560;13.000;2023-04-02T02:13:45;100278.84;;;4.29;100.00
54270;BME280;40181;51.560;13.000;2023-04-02T02:16:17;100279.53;;;4.50;100.00
54270;BME280;40181;51.560;13.000;2023-04-02T02:18:49;100286.25;;;4.43;100.00
54270;BME280;40181;51.560;13.000;2023-04-02T02:21:27;100279.75;;;4.30;100.00
54270;BME280;40181;51.560;13.000;2023-04-02T02:24:03;100287.06;;;4.42;100.00
54270;BME280;40181;51.560;13.000;2023-04-02T02:26:34;100294.06;;;4.19;100.00
54270;BME280;40181;51.560;13.000;2023-04-02T02:29:05;100299.22;;;4.17;100.00
54270;BME280;40181;51.560;13.000;2023-04-02T02:31:40;100304.16;;;4.35;100.00
54270;BME280;40181;51.560;13.000;2023-04-02T02:34:15;100306.75;;;4.35;100.00
54270;BME280;40181;51.560;13.000;2023-04-02T02:36:51;100315.16;;;4.26;100.00
54270;BME280;40181;51.560;13.000;2023-04-02T02:39:24;100324.38;;;4.18;100.00
54270;BME280;40181;51.560;13.000;2023-04-02T02:42:01;100320.19;;;4.22;100.00
54270;BME280;40181;51.560;13.000;2023-04-02T02:44:39;100325.63;;;4.28;100.00
54270;BME280;40181;51.560;13.000;2023-04-02T02:47:17;100324.56;;;4.23;100.00
54270;BME280;40181;51.560;13.000;2023-04-02T02:49:52;100338.25;;;4.19;100.00
54270;BME280;40181;51.560;13.000;2023-04-02T02:52:25;100344.47;;;3.98;100.00
54270;BME280;40181;51.560;13.000;2023-04-02T02:54:58;100358.69;;;4.08;100.00
54270;BME280;40181;51.560;13.000;2023-04-02T02:57:31;100347.78;;;4.18;100.00
54270;BME280;40181;51.560;13.000;2023-04-02T03:00:05;100354.44;;;4.10;100.00
54270;BME280;40181;51.560;13.000;2023-04-02T03:02:40;100363.59;;;4.00;100.00
54270;BME280;40181;51.560;13.000;2023-04-02T03:05:15;100366.41;;;3.82;100.00
54270;BME280;40181;51.560;13.000;2023-04-02T03:07:48;100368.06;;;3.80;100.00
54270;BME280;40181;51.560;13.000;2023-04-02T03:10:22;100369.44;;;4.17;100.00
54270;BME280;40181;51.560;13.000;2023-04-02T03:13:07;100370.34;;;3.95;100.00
54270;BME280;40181;51.560;13.000;2023-04-02T03:15:52;100380.25;;;4.05;100.00
54270;BME280;40181;51.560;13.000;2023-04-02T03:18:33;100383.53;;;4.24;100.00
54270;BME280;40181;51.560;13.000;2023-04-02T03:21:15;100389.91;;;4.09;100.00
54270;BME280;40181;51.560;13.000;2023-04-02T03:23:48;100396.16;;;3.90;100.00
54270;BME280;40181;51.560;13.000;2023-04-02T03:26:23;100397.25;;;4.20;100.00
54270;BME280;40181;51.560;13.000;2023-04-02T03:29:00;100411.97;;;4.19;100.00
54270;BME280;40181;51.560;13.000;2023-04-02T03:31:34;100411.69;;;4.11;100.00
54270;BME280;40181;51.560;13.000;2023-04-02T03:34:12;100418.47;;;4.08;99.26
54270;BME280;40181;51.560;13.000;2023-04-02T03:36:50;100419.31;;;4.07;99.70
54270;BME280;40181;51.560;13.000;2023-04-02T03:39:27;100426.94;;;4.02;100.00
54270;BME280;40181;51.560;13.000;2023-04-02T03:42:04;100432.91;;;3.99;99.84
54270;BME280;40181;51.560;13.000;2023-04-02T03:44:38;100443.06;;;3.93;99.81
54270;BME280;40181;51.560;13.000;2023-04-02T03:47:15;100447.72;;;3.79;100.00
54270;BME280;40181;51.560;13.000;2023-04-02T03:49:55;100455.63;;;3.82;99.50
54270;BME280;40181;51.560;13.000;2023-04-02T03:52:28;100462.25;;;3.74;100.00
54270;BME280;40181;51.560;13.000;2023-04-02T03:54:59;100465.84;;;3.78;99.17
54270;BME280;40181;51.560;13.000;2023-04-02T03:57:33;100470.72;;;3.91;98.41
54270;BME280;40181;51.560;13.000;2023-04-02T04:00:09;100475.19;;;3.95;98.64
54270;BME280;40181;51.560;13.000;2023-04-02T04:02:45;100485.38;;;3.89;99.72
54270;BME280;40181;51.560;13.000;2023-04-02T04:05:25;100496.44;;;3.62;99.72
54270;BME280;40181;51.560;13.000;2023-04-02T04:08:00;100509.66;;;3.68;98.81
54270;BME280;40181;51.560;13.000;2023-04-02T04:10:31;100500.53;;;3.78;98.27
54270;BME280;40181;51.560;13.000;2023-04-02T04:13:04;100503.97;;;4.00;98.33
54270;BME280;40181;51.560;13.000;2023-04-02T04:15:37;100518.41;;;3.70;98.76
54270;BME280;40181;51.560;13.000;2023-04-02T04:18:18;100525.09;;;3.86;98.18
54270;BME280;40181;51.560;13.000;2023-04-02T04:21:04;100529.78;;;3.95;97.29
54270;BME280;40181;51.560;13.000;2023-04-02T04:23:40;100534.50;;;3.62;97.31
54270;BME280;40181;51.560;13.000;2023-04-02T04:26:18;100554.78;;;3.70;97.13
54270;BME280;40181;51.560;13.000;2023-04-02T04:28:55;100545.34;;;3.72;96.62
54270;BME280;40181;51.560;13.000;2023-04-02T04:31:33;100549.00;;;3.78;96.83
54270;BME280;40181;51.560;13.000;2023-04-02T04:34:07;100559.25;;;3.53;96.77
54270;BME280;40181;51.560;13.000;2023-04-02T04:36:46;100565.09;;;3.48;96.77
54270;BME280;40181;51.560;13.000;2023-04-02T04:39:25;100574.59;;;3.68;96.13
54270;BME280;40181;51.560;13.000;2023-04-02T04:42:00;100573.47;;;3.83;95.61
54270;BME280;40181;51.560;13.000;2023-04-02T04:44:39;100578.34;;;3.75;95.92
54270;BME280;40181;51.560;13.000;2023-04-02T04:47:16;100580.06;;;3.74;95.44
54270;BME280;40181;51.560;13.000;2023-04-02T04:49:51;100593.13;;;3.76;96.55
54270;BME280;40181;51.560;13.000;2023-04-02T04:52:28;100600.44;;;3.44;96.30
54270;BME280;40181;51.560;13.000;2023-04-02T04:55:00;100600.97;;;3.56;96.10
54270;BME280;40181;51.560;13.000;2023-04-02T04:57:32;100615.66;;;3.56;96.03
54270;BME280;40181;51.560;13.000;2023-04-02T05:00:06;100611.72;;;3.44;95.05
54270;BME280;40181;51.560;13.000;2023-04-02T05:02:45;100617.59;;;3.40;95.92
54270;BME280;40181;51.560;13.000;2023-04-02T05:05:19;100636.59;;;3.39;96.29
54270;BME280;40181;51.560;13.000;2023-04-02T05:07:58;100636.53;;;3.38;96.54
54270;BME280;40181;51.560;13.000;2023-04-02T05:10:36;100637.28;;;3.35;95.56
54270;BME280;40181;51.560;13.000;2023-04-02T05:13:14;100641.56;;;3.54;95.76
54270;BME280;40181;51.560;13.000;2023-04-02T05:15:50;100663.13;;;3.52;95.18
54270;BME280;40181;51.560;13.000;2023-04-02T05:18:26;100653.91;;;3.39;95.36
54270;BME280;40181;51.560;13.000;2023-04-02T05:21:02;100666.31;;;3.26;95.52
54270;BME280;40181;51.560;13.000;2023-04-02T05:23:38;100659.00;;;3.37;95.36
54270;BME280;40181;51.560;13.000;2023-04-02T05:26:14;100669.72;;;3.45;94.95
54270;BME280;40181;51.560;13.000;2023-04-02T05:28:50;100681.97;;;3.48;94.69
54270;BME280;40181;51.560;13.000;2023-04-02T05:31:24;100684.69;;;3.51;93.88
54270;BME280;40181;51.560;13.000;2023-04-02T05:33:57;100693.94;;;3.44;93.96
54270;BME280;40181;51.560;13.000;2023-04-02T05:36:27;100685.31;;;3.25;93.40
54270;BME280;40181;51.560;13.000;2023-04-02T05:39:00;100705.25;;;3.26;92.74
54270;BME280;40181;51.560;13.000;2023-04-02T05:41:32;100722.69;;;3.29;92.64
54270;BME280;40181;51.560;13.000;2023-04-02T05:44:09;100719.91;;;3.44;91.60
54270;BME280;40181;51.560;13.000;2023-04-02T05:46:45;100720.59;;;3.40;91.75
54270;BME280;40181;51.560;13.000;2023-04-02T05:49:19;100737.25;;;3.25;90.86
54270;BME280;40181;51.560;13.000;2023-04-02T05:51:53;100746.47;;;3.18;90.12
54270;BME280;40181;51.560;13.000;2023-04-02T05:54:32;100741.41;;;3.41;89.25
54270;BME280;40181;51.560;13.000;2023-04-02T05:57:09;100738.50;;;3.53;90.06
54270;BME280;40181;51.560;13.000;2023-04-02T05:59:44;100746.50;;;3.58;89.70
54270;BME280;40181;51.560;13.000;2023-04-02T06:02:19;100746.91;;;3.48;88.69
54270;BME280;40181;51.560;13.000;2023-04-02T06:04:55;100752.63;;;3.40;88.42
54270;BME280;40181;51.560;13.000;2023-04-02T06:07:29;100761.25;;;3.39;89.03
54270;BME280;40181;51.560;13.000;2023-04-02T06:10:09;100766.59;;;3.42;89.36
54270;BME280;40181;51.560;13.000;2023-04-02T06:12:42;100767.75;;;3.49;87.99
54270;BME280;40181;51.560;13.000;2023-04-02T06:15:16;100770.91;;;3.62;88.56
54270;BME280;40181;51.560;13.000;2023-04-02T06:17:47;100773.28;;;3.77;87.67
54270;BME280;40181;51.560;13.000;2023-04-02T06:20:19;100782.75;;;3.74;88.20
54270;BME280;40181;51.560;13.000;2023-04-02T06:22:52;100781.84;;;3.54;87.01
54270;BME280;40181;51.560;13.000;2023-04-02T06:25:28;100798.66;;;3.43;87.77
54270;BME280;40181;51.560;13.000;2023-04-02T06:28:03;100800.81;;;3.34;88.13
54270;BME280;40181;51.560;13.000;2023-04-02T06:30:34;100807.47;;;3.46;87.01
54270;BME280;40181;51.560;13.000;2023-04-02T06:33:05;100806.66;;;3.48;88.21
54270;BME280;40181;51.560;13.000;2023-04-02T06:35:36;100809.34;;;3.69;88.16
54270;BME280;40181;51.560;13.000;2023-04-02T06:38:15;100826.38;;;3.44;86.75
54270;BME280;40181;51.560;13.000;2023-04-02T06:40:51;100825.72;;;3.48;85.64
54270;BME280;40181;51.560;13.000;2023-04-02T06:43:25;100830.75;;;3.45;85.34
54270;BME280;40181;51.560;13.000;2023-04-02T06:45:59;100844.53;;;3.42;84.78
54270;BME280;40181;51.560;13.000;2023-04-02T06:48:32;100843.31;;;3.54;85.02
54270;BME280;40181;51.560;13.000;2023-04-02T06:51:05;100842.81;;;3.63;84.93
54270;BME280;40181;51.560;13.000;2023-04-02T06:53:38;100843.81;;;3.65;83.89
54270;BME280;40181;51.560;13.000;2023-04-02T06:56:19;100847.56;;;3.52;84.69
54270;BME280;40181;51.560;13.000;2023-04-02T06:58:52;100848.50;;;3.54;83.88
54270;BME280;40181;51.560;13.000;2023-04-02T07:01:24;100856.75;;;3.45;84.45
54270;BME280;40181;51.560;13.000;2023-04-02T07:03:55;100861.53;;;3.55;83.99
54270;BME280;40181;51.560;13.000;2023-04-02T07:06:24;100861.38;;;3.32;84.73
54270;BME280;40181;51.560;13.000;2023-04-02T07:08:53;100874.38;;;3.70;83.67
54270;BME280;40181;51.560;13.000;2023-04-02T07:11:25;100874.66;;;3.77;84.86
54270;BME280;40181;51.560;13.000;2023-04-02T07:13:54;100880.88;;;3.42;84.50
54270;BME280;40181;51.560;13.000;2023-04-02T07:16:24;100874.19;;;3.66;83.37
54270;BME280;40181;51.560;13.000;2023-04-02T07:18:55;100878.28;;;3.42;84.63
54270;BME280;40181;51.560;13.000;2023-04-02T07:21:24;100891.94;;;3.56;84.03
54270;BME280;40181;51.560;13.000;2023-04-02T07:23:53;100893.31;;;3.50;84.73
54270;BME280;40181;51.560;13.000;2023-04-02T07:26:26;100908.47;;;3.58;83.99
54270;BME280;40181;51.560;13.000;2023-04-02T07:28:55;100899.56;;;3.53;85.42
54270;BME280;40181;51.560;13.000;2023-04-02T07:31:26;100908.31;;;3.73;84.66
54270;BME280;40181;51.560;13.000;2023-04-02T07:33:57;100916.47;;;3.63;85.15
54270;BME280;40181;51.560;13.000;2023-04-02T07:36:28;100923.00;;;3.37;84.42
54270;BME280;40181;51.560;13.000;2023-04-02T07:38:57;100927.63;;;3.60;83.73
54270;BME280;40181;51.560;13.000;2023-04-02T07:41:29;100923.38;;;3.63;83.92
54270;BME280;40181;51.560;13.000;2023-04-02T07:43:58;100931.47;;;3.69;84.57
54270;BME280;40181;51.560;13.000;2023-04-02T07:46:27;100931.19;;;3.44;85.14
54270;BME280;40181;51.560;13.000;2023-04-02T07:48:56;100934.81;;;3.30;84.25
54270;BME280;40181;51.560;13.000;2023-04-02T07:51:25;100952.56;;;3.39;84.73
54270;BME280;40181;51.560;13.000;2023-04-02T07:53:54;100946.19;;;3.50;84.50
54270;BME280;40181;51.560;13.000;2023-04-02T07:56:28;100946.25;;;3.52;84.10
54270;BME280;40181;51.560;13.000;2023-04-02T07:58:57;100951.34;;;3.68;84.38
54270;BME280;40181;51.560;13.000;2023-04-02T08:01:27;100955.88;;;3.54;84.97
54270;BME280;40181;51.560;13.000;2023-04-02T08:04:00;100955.84;;;3.53;84.12
54270;BME280;40181;51.560;13.000;2023-04-02T08:06:32;100967.09;;;3.53;84.00
54270;BME280;40181;51.560;13.000;2023-04-02T08:09:01;100960.47;;;3.60;84.16
54270;BME280;40181;51.560;13.000;2023-04-02T08:11:33;100965.22;;;3.51;85.38
54270;BME280;40181;51.560;13.000;2023-04-02T08:14:02;100972.47;;;3.56;85.22
54270;BME280;40181;51.560;13.000;2023-04-02T08:16:43;100975.72;;;3.52;85.25
54270;BME280;40181;51.560;13.000;2023-04-02T08:19:13;100985.56;;;3.41;85.15
54270;BME280;40181;51.560;13.000;2023-04-02T08:21:43;100983.50;;;3.52;85.88
54270;BME280;40181;51.560;13.000;2023-04-02T08:24:14;100988.28;;;3.61;84.84
54270;BME280;40181;51.560;13.000;2023-04-02T08:26:47;100993.97;;;3.54;85.06
54270;BME280;40181;51.560;13.000;2023-04-02T08:29:18;101005.09;;;3.51;85.88
54270;BME280;40181;51.560;13.000;2023-04-02T08:31:47;101006.91;;;3.70;84.57
54270;BME280;40181;51.560;13.000;2023-04-02T08:34:16;101006.00;;;3.52;84.03
54270;BME280;40181;51.560;13.000;2023-04-02T08:36:46;101008.84;;;3.56;84.69
54270;BME280;40181;51.560;13.000;2023-04-02T08:39:14;101024.00;;;3.83;84.79
54270;BME280;40181;51.560;13.000;2023-04-02T08:41:52;101019.81;;;3.87;84.07
54270;BME280;40181;51.560;13.000;2023-04-02T08:44:38;101023.16;;;3.84;84.48
54270;BME280;40181;51.560;13.000;2023-04-02T08:47:13;101029.63;;;3.74;85.08
54270;BME280;40181;51.560;13.000;2023-04-02T08:49:49;101023.16;;;3.84;85.15
54270;BME280;40181;51.560;13.000;2023-04-02T08:52:23;101028.75;;;3.74;84.12
54270;BME280;40181;51.560;13.000;2023-04-02T08:54:54;101040.84;;;3.73;84.58
54270;BME280;40181;51.560;13.000;2023-04-02T08:57:34;101038.25;;;3.92;84.14
54270;BME280;40181;51.560;13.000;2023-04-02T09:00:23;101035.34;;;3.85;83.48
54270;BME280;40181;51.560;13.000;2023-04-02T09:03:00;101040.97;;;3.77;83.74
54270;BME280;40181;51.560;13.000;2023-04-02T09:05:35;101052.13;;;3.92;84.08
54270;BME280;40181;51.560;13.000;2023-04-02T09:08:15;101044.25;;;3.91;83.58
54270;BME280;40181;51.560;13.000;2023-04-02T09:10:50;101052.41;;;3.80;83.57
54270;BME280;40181;51.560;13.000;2023-04-02T09:13:28;101049.38;;;3.89;83.13
54270;BME280;40181;51.560;13.000;2023-04-02T09:16:01;101056.97;;;3.84;83.20
54270;BME280;40181;51.560;13.000;2023-04-02T09:18:35;101055.75;;;3.96;82.09
54270;BME280;40181;51.560;13.000;2023-04-02T09:21:27;101056.00;;;4.00;82.36
54270;BME280;40181;51.560;13.000;2023-04-02T09:24:00;101071.06;;;3.71;82.19
54270;BME280;40181;51.560;13.000;2023-04-02T09:26:30;101068.03;;;3.98;81.88
54270;BME280;40181;51.560;13.000;2023-04-02T09:29:22;101073.00;;;4.12;81.22
54270;BME280;40181;51.560;13.000;2023-04-02T09:32:25;101077.59;;;3.99;81.42
54270;BME280;40181;51.560;13.000;2023-04-02T09:35:07;101080.63;;;3.91;81.08
54270;BME280;40181;51.560;13.000;2023-04-02T09:37:40;101088.59;;;3.94;81.18
54270;BME280;40181;51.560;13.000;2023-04-02T09:40:18;101093.88;;;4.13;81.87
54270;BME280;40181;51.560;13.000;2023-04-02T09:43:04;101100.78;;;4.13;81.72
54270;BME280;40181;51.560;13.000;2023-04-02T09:45:41;101100.31;;;4.04;79.67
54270;BME280;40181;51.560;13.000;2023-04-02T09:48:20;101109.63;;;4.17;79.58
54270;BME280;40181;51.560;13.000;2023-04-02T09:51:06;101105.75;;;4.26;81.97
54270;BME280;40181;51.560;13.000;2023-04-02T09:53:42;101114.97;;;4.20;80.95
54270;BME280;40181;51.560;13.000;2023-04-02T09:56:16;101119.41;;;4.22;79.78
54270;BME280;40181;51.560;13.000;2023-04-02T09:59:02;101126.94;;;4.52;79.38
54270;BME280;40181;51.560;13.000;2023-04-02T10:01:37;101131.91;;;4.29;79.40
54270;BME280;40181;51.560;13.000;2023-04-02T10:04:33;101138.16;;;4.33;80.62
54270;BME280;40181;51.560;13.000;2023-04-02T10:07:09;101136.38;;;4.32;80.22
54270;BME280;40181;51.560;13.000;2023-04-02T10:09:59;101139.19;;;4.19;79.38
54270;BME280;40181;51.560;13.000;2023-04-02T10:12:35;101137.63;;;4.40;79.08
54270;BME280;40181;51.560;13.000;2023-04-02T10:15:13;101142.59;;;4.54;79.52
54270;BME280;40181;51.560;13.000;2023-04-02T10:17:50;101148.56;;;4.51;79.51
54270;BME280;40181;51.560;13.000;2023-04-02T10:20:25;101159.94;;;4.53;79.89
54270;BME280;40181;51.560;13.000;2023-04-02T10:22:57;101156.63;;;4.76;79.12
54270;BME280;40181;51.560;13.000;2023-04-02T10:25:30;101154.44;;;4.65;75.86
54270;BME280;40181;51.560;13.000;2023-04-02T10:28:10;101152.47;;;4.61;76.66
54270;BME280;40181;51.560;13.000;2023-04-02T10:30:52;101151.44;;;4.76;76.02
54270;BME280;40181;51.560;13.000;2023-04-02T10:33:33;101164.53;;;4.77;75.92
54270;BME280;40181;51.560;13.000;2023-04-02T10:36:08;101162.69;;;4.94;76.09
54270;BME280;40181;51.560;13.000;2023-04-02T10:38:47;101167.06;;;4.95;73.85
54270;BME280;40181;51.560;13.000;2023-04-02T10:41:29;101168.13;;;4.99;72.97
54270;BME280;40181;51.560;13.000;2023-04-02T10:44:20;101178.66;;;5.02;73.58
54270;BME280;40181;51.560;13.000;2023-04-02T10:47:08;101175.03;;;4.98;72.57
54270;BME280;40181;51.560;13.000;2023-04-02T10:49:49;101173.13;;;5.14;74.06
54270;BME280;40181;51.560;13.000;2023-04-02T10:52:27;101185.72;;;5.05;73.93
54270;BME280;40181;51.560;13.000;2023-04-02T10:55:00;101184.59;;;5.37;72.99
54270;BME280;40181;51.560;13.000;2023-04-02T10:57:33;101186.44;;;5.40;72.82
54270;BME280;40181;51.560;13.000;2023-04-02T11:00:13;101191.00;;;5.65;73.52
54270;BME280;40181;51.560;13.000;2023-04-02T11:02:51;101190.69;;;5.58;70.58
54270;BME280;40181;51.560;13.000;2023-04-02T11:05:28;101193.38;;;5.59;72.54
54270;BME280;40181;51.560;13.000;2023-04-02T11:08:03;101184.16;;;5.48;70.76
54270;BME280;40181;51.560;13.000;2023-04-02T11:10:37;101205.28;;;5.54;70.65
54270;BME280;40181;51.560;13.000;2023-04-02T11:13:14;101198.59;;;5.59;71.45
54270;BME280;40181;51.560;13.000;2023-04-02T11:15:47;101205.78;;;5.65;72.21
54270;BME280;40181;51.560;13.000;2023-04-02T11:18:26;101203.66;;;5.36;71.06
54270;BME280;40181;51.560;13.000;2023-04-02T11:21:04;101213.88;;;5.51;71.12
54270;BME280;40181;51.560;13.000;2023-04-02T11:23:53;101220.59;;;5.46;71.12
54270;BME280;40181;51.560;13.000;2023-04-02T11:26:32;101227.47;;;5.64;71.07
54270;BME280;40181;51.560;13.000;2023-04-02T11:29:13;101226.69;;;5.66;70.68
54270;BME280;40181;51.560;13.000;2023-04-02T11:31:47;101222.91;;;5.79;71.36
54270;BME280;40181;51.560;13.000;2023-04-02T11:37:36;101225.16;;;5.91;69.65
54270;BME280;40181;51.560;13.000;2023-04-02T11:46:43;101239.94;;;5.91;69.93
54270;BME280;40181;51.560;13.000;2023-04-02T11:49:34;101243.78;;;5.60;68.59
54270;BME280;40181;51.560;13.000;2023-04-02T11:52:21;101259.19;;;5.75;68.90
54270;BME280;40181;51.560;13.000;2023-04-02T11:55:01;101258.75;;;5.64;69.87
54270;BME280;40181;51.560;13.000;2023-04-02T12:01:31;101270.59;;;5.57;69.74
54270;BME280;40181;51.560;13.000;2023-04-02T12:04:20;101272.94;;;5.71;70.09
54270;BME280;40181;51.560;13.000;2023-04-02T12:07:36;101263.34;;;5.70;70.88
54270;BME280;40181;51.560;13.000;2023-04-02T12:10:20;101284.19;;;5.70;68.73
54270;BME280;40181;51.560;13.000;2023-04-02T12:12:51;101279.84;;;5.70;68.01
54270;BME280;40181;51.560;13.000;2023-04-02T12:15:41;101282.47;;;5.90;68.58
54270;BME280;40181;51.560;13.000;2023-04-02T12:18:14;101288.78;;;5.75;68.51
54270;BME280;40181;51.560;13.000;2023-04-02T12:20:47;101285.00;;;5.88;67.27
54270;BME280;40181;51.560;13.000;2023-04-02T12:23:19;101284.41;;;5.74;67.32
54270;BME280;40181;51.560;13.000;2023-04-02T12:25:56;101295.03;;;5.79;68.12
54270;BME280;40181;51.560;13.000;2023-04-02T12:28:28;101300.91;;;5.75;68.09
54270;BME280;40181;51.560;13.000;2023-04-02T12:31:02;101296.16;;;6.04;68.58
54270;BME280;40181;51.560;13.000;2023-04-02T12:33:34;101302.66;;;5.94;67.20
54270;BME280;40181;51.560;13.000;2023-04-02T12:36:13;101295.66;;;6.13;68.16
54270;BME280;40181;51.560;13.000;2023-04-02T12:38:47;101314.53;;;6.07;68.32
54270;BME280;40181;51.560;13.000;2023-04-02T12:41:23;101301.91;;;6.16;68.96
54270;BME280;40181;51.560;13.000;2023-04-02T12:43:58;101302.84;;;6.18;69.30
54270;BME280;40181;51.560;13.000;2023-04-02T12:46:29;101303.38;;;6.09;68.46
54270;BME280;40181;51.560;13.000;2023-04-02T12:49:04;101309.25;;;6.05;67.05
54270;BME280;40181;51.560;13.000;2023-04-02T12:51:35;101306.59;;;6.04;67.52
54270;BME280;40181;51.560;13.000;2023-04-02T12:54:05;101321.00;;;6.15;66.76
54270;BME280;40181;51.560;13.000;2023-04-02T12:56:40;101315.28;;;6.04;66.92
54270;BME280;40181;51.560;13.000;2023-04-02T12:59:26;101324.53;;;5.98;66.93
54270;BME280;40181;51.560;13.000;2023-04-02T13:02:00;101323.72;;;5.99;66.64
54270;BME280;40181;51.560;13.000;2023-04-02T13:04:29;101324.75;;;5.82;67.75
54270;BME280;40181;51.560;13.000;2023-04-02T13:06:58;101325.72;;;6.04;67.06
54270;BME280;40181;51.560;13.000;2023-04-02T13:09:32;101331.34;;;5.94;66.87
54270;BME280;40181;51.560;13.000;2023-04-02T13:12:05;101332.16;;;5.93;66.03
54270;BME280;40181;51.560;13.000;2023-04-02T13:14:50;101345.81;;;5.87;66.06
54270;BME280;40181;51.560;13.000;2023-04-02T13:17:41;101339.03;;;5.91;64.74
54270;BME280;40181;51.560;13.000;2023-04-02T13:20:29;101337.59;;;6.17;65.53
54270;BME280;40181;51.560;13.000;2023-04-02T13:23:01;101351.81;;;6.04;66.23
54270;BME280;40181;51.560;13.000;2023-04-02T13:25:46;101347.91;;;6.14;65.04
54270;BME280;40181;51.560;13.000;2023-04-02T13:28:17;101340.59;;;5.87;65.57
54270;BME280;40181;51.560;13.000;2023-04-02T13:30:46;101345.88;;;5.89;65.29
54270;BME280;40181;51.560;13.000;2023-04-02T13:33:16;101351.84;;;5.86;65.27
54270;BME280;40181;51.560;13.000;2023-04-02T13:35:45;101358.09;;;5.90;66.13
54270;BME280;40181;51.560;13.000;2023-04-02T13:38:14;101367.53;;;6.06;65.32
54270;BME280;40181;51.560;13.000;2023-04-02T13:40:44;101359.41;;;6.00;65.42
54270;BME280;40181;51.560;13.000;2023-04-02T13:43:18;101352.94;;;6.09;65.50
54270;BME280;40181;51.560;13.000;2023-04-02T13:45:49;101360.88;;;6.13;66.96